Time;durP1;ratioP1;P1;durP2;ratioP2;P2;SDS_P1;SDS_P2;PMS_P1;PMS_P2;Temp;Humidity;BMP_temperature;BMP_pressure;BME280_temperature;BME280_humidity;BME280_pressure;Samples;Min_cycle;Max_cycle;Signal;HPM_P1;HPM_P2
2023/10/21 00:02:02;;;;;;;31.35;13.05;;;10.80;99.90;;;;;;5044072;28;20411;-75
2023/10/21 00:04:29;;;;;;;28.02;12.95;;;10.70;99.90;;;;;;5039315;28;20064;-75
2023/10/21 00:06:55;;;;;;;33.85;13.48;;;10.60;99.90;;;;;;5028504;28;20049;-75
2023/10/21 00:09:21;;;;;;;33.42;13.27;;;10.50;99.90;;;;;;5049950;28;20521;-75
2023/10/21 00:11:46;;;;;;;28.10;12.98;;;10.40;99.90;;;;;;5044604;28;20140;-75
2023/10/21 00:14:12;;;;;;;38.88;14.40;;;10.30;99.90;;;;;;5047634;28;20553;-75
2023/10/21 00:16:38;;;;;;;35.78;14.27;;;10.20;99.90;;;;;;5053823;28;20041;-75
2023/10/21 00:19:04;;;;;;;32.72;13.38;;;10.00;99.90;;;;;;5028517;28;20041;-75
2023/10/21 00:21:30;;;;;;;38.05;14.45;;;10.00;99.90;;;;;;5040600;28;20037;-75
2023/10/21 00:23:55;;;;;;;36.47;14.63;;;9.90;99.90;;;;;;5047585;28;20590;-75
2023/10/21 00:26:22;;;;;;;30.30;13.65;;;9.90;99.90;;;;;;5049498;28;20033;-75
2023/10/21 00:28:48;;;;;;;39.40;14.80;;;9.80;99.90;;;;;;5028295;28;20055;-75
2023/10/21 00:31:13;;;;;;;39.60;14.93;;;9.70;99.90;;;;;;5022554;28;20032;-75
2023/10/21 00:33:39;;;;;;;31.52;14.23;;;9.60;99.90;;;;;;5021544;28;20040;-75
2023/10/21 00:36:05;;;;;;;50.40;15.30;;;9.60;99.90;;;;;;5042255;28;20064;-75
2023/10/21 00:38:30;;;;;;;36.08;15.15;;;9.50;99.90;;;;;;5028942;28;21155;-75
2023/10/21 00:40:57;;;;;;;35.38;14.70;;;9.50;99.90;;;;;;5052938;28;20025;-75
2023/10/21 00:43:32;;;;;;;34.33;14.55;;;9.40;99.90;;;;;;5043860;28;20438;-75
2023/10/21 00:46:01;;;;;;;34.58;14.77;;;9.40;99.90;;;;;;5058149;28;20487;-75
2023/10/21 00:48:27;;;;;;;40.47;15.55;;;9.40;99.90;;;;;;5049111;28;20055;-75
2023/10/21 00:50:52;;;;;;;44.80;15.43;;;9.40;99.90;;;;;;5038309;28;20052;-75
2023/10/21 00:53:18;;;;;;;44.67;15.93;;;9.30;99.90;;;;;;5030354;28;20040;-75
2023/10/21 00:55:44;;;;;;;41.03;15.52;;;9.30;99.90;;;;;;5051706;28;20060;-75
2023/10/21 00:58:09;;;;;;;41.45;15.10;;;9.30;99.90;;;;;;5046278;28;20568;-75
2023/10/21 01:00:37;;;;;;;46.53;15.88;;;9.30;99.90;;;;;;5022865;28;20029;-74
2023/10/21 01:03:03;;;;;;;50.28;17.13;;;9.30;99.90;;;;;;5040310;28;20073;-75
2023/10/21 01:05:28;;;;;;;52.95;16.50;;;9.30;99.90;;;;;;5044534;28;20130;-75
2023/10/21 01:07:59;;;;;;;61.17;18.45;;;9.30;99.90;;;;;;5047581;28;20525;-75
2023/10/21 01:10:25;;;;;;;44.22;15.27;;;9.20;99.90;;;;;;5016429;28;20407;-75
2023/10/21 01:12:51;;;;;;;37.70;15.20;;;9.10;99.90;;;;;;5045840;28;20178;-75
2023/10/21 01:15:17;;;;;;;43.33;15.38;;;9.10;99.90;;;;;;5046931;28;20115;-75
2023/10/21 01:17:49;;;;;;;39.65;15.15;;;9.10;99.90;;;;;;5034474;28;20038;-75
2023/10/21 01:20:16;;;;;;;38.00;15.50;;;9.20;99.90;;;;;;5043328;28;20044;-75
2023/10/21 01:22:43;;;;;;;35.55;14.35;;;9.20;99.90;;;;;;5024702;28;20479;-75
2023/10/21 01:25:09;;;;;;;107.95;20.58;;;9.20;99.90;;;;;;5044343;28;20057;-75
2023/10/21 01:27:34;;;;;;;42.05;15.25;;;9.20;99.90;;;;;;5033651;28;20036;-75
2023/10/21 01:30:00;;;;;;;46.25;16.05;;;9.10;99.90;;;;;;5042454;28;20033;-75
2023/10/21 01:32:26;;;;;;;61.45;16.63;;;9.00;99.90;;;;;;5028088;28;20025;-75
2023/10/21 01:34:51;;;;;;;41.25;15.23;;;8.90;99.90;;;;;;5040707;28;20542;-75
2023/10/21 01:37:17;;;;;;;47.40;15.15;;;8.90;99.90;;;;;;5044384;28;20045;-75
2023/10/21 01:39:44;;;;;;;49.40;15.85;;;8.90;99.90;;;;;;5019123;28;20112;-75
2023/10/21 01:42:09;;;;;;;58.45;17.00;;;8.90;99.90;;;;;;5025775;28;20037;-75
2023/10/21 01:44:35;;;;;;;43.60;15.20;;;8.90;99.90;;;;;;5029541;28;20036;-75
2023/10/21 01:47:01;;;;;;;47.30;16.17;;;8.90;99.90;;;;;;5025800;28;20065;-75
2023/10/21 01:49:26;;;;;;;53.15;16.65;;;8.90;99.90;;;;;;5037347;28;20402;-75
2023/10/21 01:51:52;;;;;;;43.63;15.57;;;8.80;99.90;;;;;;5044695;28;20029;-75
2023/10/21 01:54:17;;;;;;;52.35;15.20;;;8.90;99.90;;;;;;5045482;28;20071;-75
2023/10/21 01:56:45;;;;;;;39.72;15.63;;;8.90;99.90;;;;;;5049598;28;20558;-75
2023/10/21 01:59:11;;;;;;;53.40;14.93;;;8.90;99.90;;;;;;5042378;28;20091;-75
2023/10/21 02:01:36;;;;;;;44.25;14.52;;;8.90;99.90;;;;;;5028542;28;20401;-76
2023/10/21 02:04:05;;;;;;;44.33;14.23;;;8.90;99.90;;;;;;5030634;28;20104;-75
2023/10/21 02:06:30;;;;;;;38.63;14.45;;;8.90;99.90;;;;;;5066996;28;20036;-75
2023/10/21 02:08:56;;;;;;;48.08;14.95;;;8.90;99.90;;;;;;5040253;28;20093;-75
2023/10/21 02:11:24;;;;;;;52.65;16.15;;;9.00;99.90;;;;;;5041544;28;20033;-75
2023/10/21 02:13:49;;;;;;;34.53;14.50;;;9.00;99.90;;;;;;5031547;28;20128;-75
2023/10/21 02:16:15;;;;;;;51.20;16.15;;;8.90;99.90;;;;;;5045247;28;20475;-75
2023/10/21 02:18:41;;;;;;;46.95;15.80;;;9.00;99.90;;;;;;5056181;28;20046;-76
2023/10/21 02:21:07;;;;;;;45.80;15.50;;;9.00;99.90;;;;;;5052167;28;20039;-75
2023/10/21 02:23:33;;;;;;;38.13;14.27;;;9.10;99.90;;;;;;5044691;28;20438;-75
2023/10/21 02:26:08;;;;;;;51.40;16.88;;;9.00;99.90;;;;;;5045055;28;20435;-75
2023/10/21 02:28:34;;;;;;;50.53;16.63;;;9.10;99.90;;;;;;5020669;28;20045;-75
2023/10/21 02:31:03;;;;;;;49.63;16.08;;;9.10;99.90;;;;;;5032518;28;20465;-75
2023/10/21 02:33:29;;;;;;;37.15;15.23;;;9.20;99.90;;;;;;5017543;28;20124;-76
2023/10/21 02:35:55;;;;;;;45.03;15.93;;;9.20;99.90;;;;;;5026774;28;20047;-75
2023/10/21 02:38:22;;;;;;;48.15;15.68;;;9.20;99.90;;;;;;5029087;28;20415;-75
2023/10/21 02:40:51;;;;;;;38.90;14.95;;;9.20;99.90;;;;;;5016373;28;20049;-75
2023/10/21 02:43:17;;;;;;;52.53;17.08;;;9.30;99.90;;;;;;5050340;28;20115;-75
2023/10/21 02:45:43;;;;;;;40.13;17.02;;;9.40;99.90;;;;;;5018833;28;20037;-75
2023/10/21 02:48:08;;;;;;;47.20;15.98;;;9.40;99.90;;;;;;5038414;28;20045;-75
2023/10/21 02:50:34;;;;;;;45.47;16.65;;;9.40;99.90;;;;;;5031082;28;20548;-75
2023/10/21 02:53:00;;;;;;;46.97;15.55;;;9.40;99.90;;;;;;5022351;28;20041;-76
2023/10/21 02:55:26;;;;;;;49.00;16.17;;;9.40;99.90;;;;;;5042665;28;20053;-75
2023/10/21 02:57:52;;;;;;;34.72;15.57;;;9.40;99.90;;;;;;5009845;28;20052;-76
2023/10/21 03:00:21;;;;;;;49.03;16.42;;;9.40;99.90;;;;;;5024344;28;20087;-75
2023/10/21 03:02:50;;;;;;;49.03;16.05;;;9.40;99.90;;;;;;5023643;28;20160;-75
2023/10/21 03:05:16;;;;;;;44.58;15.48;;;9.40;99.90;;;;;;5037667;28;20040;-75
2023/10/21 03:07:43;;;;;;;32.35;14.48;;;9.40;99.90;;;;;;5025167;28;20033;-75
2023/10/21 03:10:10;;;;;;;49.80;15.70;;;9.40;99.90;;;;;;5023786;28;20739;-75
2023/10/21 03:12:35;;;;;;;52.00;16.67;;;9.50;99.90;;;;;;5027071;28;20453;-75
2023/10/21 03:15:02;;;;;;;41.92;14.73;;;9.50;99.90;;;;;;5037320;28;20038;-75
2023/10/21 03:17:28;;;;;;;40.65;14.63;;;9.40;99.90;;;;;;5018476;28;20044;-74
2023/10/21 03:19:54;;;;;;;59.70;16.75;;;9.40;99.90;;;;;;5036602;28;20403;-75
2023/10/21 03:22:20;;;;;;;46.10;15.25;;;9.40;99.90;;;;;;5034968;28;20484;-75
2023/10/21 03:24:46;;;;;;;45.15;15.07;;;9.40;99.90;;;;;;5045446;28;20408;-75
2023/10/21 03:27:13;;;;;;;31.85;14.43;;;9.40;99.90;;;;;;5033512;28;20048;-75
2023/10/21 03:29:42;;;;;;;39.50;14.45;;;9.40;99.90;;;;;;5044706;28;20048;-74
2023/10/21 03:32:09;;;;;;;47.00;15.70;;;9.30;99.90;;;;;;5026394;28;20037;-75
2023/10/21 03:34:35;;;;;;;46.70;14.43;;;9.30;99.90;;;;;;5030884;28;20045;-74
2023/10/21 03:37:01;;;;;;;43.67;13.77;;;9.30;99.90;;;;;;5019447;28;20052;-75
2023/10/21 03:39:27;;;;;;;42.60;14.63;;;9.30;99.90;;;;;;5041612;28;20094;-75
2023/10/21 03:41:53;;;;;;;55.70;15.45;;;9.40;99.90;;;;;;5037240;28;20030;-74
2023/10/21 03:44:18;;;;;;;36.25;13.63;;;9.40;99.90;;;;;;5046543;28;20033;-75
2023/10/21 03:46:45;;;;;;;47.40;15.52;;;9.30;99.90;;;;;;5028524;28;20074;-75
2023/10/21 03:49:10;;;;;;;34.97;13.80;;;9.30;99.90;;;;;;5039393;28;20110;-74
2023/10/21 03:51:36;;;;;;;41.45;14.18;;;9.30;99.90;;;;;;5016948;28;20107;-75
2023/10/21 03:54:02;;;;;;;40.28;13.40;;;9.30;99.90;;;;;;5042717;28;20053;-75
2023/10/21 03:56:28;;;;;;;49.33;15.07;;;9.30;99.90;;;;;;5042034;28;20052;-75
2023/10/21 03:58:53;;;;;;;40.53;13.05;;;9.30;99.90;;;;;;5039796;28;20570;-75
2023/10/21 04:01:22;;;;;;;35.55;12.88;;;9.20;99.90;;;;;;5023234;28;20045;-75
2023/10/21 04:03:48;;;;;;;36.05;13.05;;;9.20;99.90;;;;;;5027948;28;20044;-75
2023/10/21 04:06:15;;;;;;;31.17;11.75;;;9.20;99.90;;;;;;5023358;28;20040;-75
2023/10/21 04:08:41;;;;;;;27.00;12.23;;;9.20;99.90;;;;;;5044809;28;20041;-75
2023/10/21 04:11:08;;;;;;;30.90;11.80;;;9.20;99.90;;;;;;5026688;28;20037;-75
2023/10/21 04:13:34;;;;;;;32.58;12.68;;;9.10;99.90;;;;;;5037003;28;20041;-75
2023/10/21 04:16:00;;;;;;;39.42;13.32;;;9.10;99.90;;;;;;5030030;28;20055;-75
2023/10/21 04:18:26;;;;;;;24.58;11.38;;;9.10;99.90;;;;;;5032143;28;20045;-75
2023/10/21 04:20:51;;;;;;;30.17;12.00;;;9.10;99.90;;;;;;5030122;28;20033;-75
2023/10/21 04:23:17;;;;;;;35.90;12.02;;;9.20;99.90;;;;;;5055100;28;20495;-74
2023/10/21 04:25:46;;;;;;;26.70;11.18;;;9.10;99.90;;;;;;5038196;28;20044;-75
2023/10/21 04:28:11;;;;;;;29.27;11.70;;;9.00;99.90;;;;;;5038790;28;20127;-75
2023/10/21 04:30:37;;;;;;;29.10;11.77;;;9.10;99.90;;;;;;5035510;28;20081;-75
2023/10/21 04:33:03;;;;;;;33.15;12.98;;;9.10;99.90;;;;;;5049057;28;20523;-77
2023/10/21 04:35:29;;;;;;;30.67;12.02;;;9.10;99.90;;;;;;5026593;28;20044;-76
2023/10/21 04:37:56;;;;;;;29.23;12.60;;;9.10;99.90;;;;;;5020689;28;20057;-77
2023/10/21 04:40:21;;;;;;;30.65;11.68;;;9.10;99.90;;;;;;5041239;28;20084;-78
2023/10/21 04:42:47;;;;;;;26.08;11.18;;;9.10;99.90;;;;;;5030393;28;20067;-78
2023/10/21 04:45:12;;;;;;;27.20;11.35;;;9.10;99.90;;;;;;5055790;28;20049;-78
2023/10/21 04:47:38;;;;;;;28.30;11.80;;;9.10;99.90;;;;;;5029444;28;20043;-78
2023/10/21 04:50:05;;;;;;;28.42;12.10;;;9.20;99.90;;;;;;5037599;28;20049;-78
2023/10/21 04:52:31;;;;;;;24.90;11.13;;;9.10;99.90;;;;;;5035876;28;20477;-78
2023/10/21 04:54:57;;;;;;;27.48;11.48;;;9.10;99.90;;;;;;5028532;28;20057;-78
2023/10/21 04:57:22;;;;;;;24.80;10.27;;;9.20;99.90;;;;;;5030981;28;20052;-78
2023/10/21 04:59:48;;;;;;;28.25;11.40;;;9.30;99.90;;;;;;5036774;28;20045;-78
2023/10/21 05:02:13;;;;;;;31.08;11.65;;;9.40;99.90;;;;;;5038949;28;20269;-78
2023/10/21 05:04:40;;;;;;;36.35;12.20;;;9.40;99.90;;;;;;5026639;28;20075;-78
2023/10/21 05:07:06;;;;;;;32.40;12.32;;;9.50;99.90;;;;;;5025767;28;20052;-77
2023/10/21 05:09:32;;;;;;;23.13;10.35;;;9.50;99.90;;;;;;5039444;28;20048;-77
2023/10/21 05:11:59;;;;;;;21.02;9.90;;;9.60;99.90;;;;;;5030848;28;20047;-78
2023/10/21 05:14:26;;;;;;;27.10;11.63;;;9.70;99.90;;;;;;5028898;28;20049;-77
2023/10/21 05:16:51;;;;;;;22.17;10.45;;;9.70;99.90;;;;;;5028264;28;20514;-77
2023/10/21 05:19:17;;;;;;;26.70;10.57;;;9.80;99.90;;;;;;5036434;28;20113;-78
2023/10/21 05:21:43;;;;;;;17.77;9.65;;;9.80;99.90;;;;;;5038758;28;20471;-77
2023/10/21 05:24:09;;;;;;;21.30;9.40;;;9.80;99.90;;;;;;5028000;28;20052;-77
2023/10/21 05:26:35;;;;;;;28.13;10.95;;;9.90;99.90;;;;;;5044348;28;20051;-77
2023/10/21 05:29:00;;;;;;;24.42;10.00;;;10.00;99.90;;;;;;5046854;28;20124;-77
2023/10/21 05:31:26;;;;;;;22.27;9.70;;;10.00;99.90;;;;;;5054133;28;20171;-77
2023/10/21 05:33:54;;;;;;;24.20;10.52;;;10.10;99.90;;;;;;5029019;28;20045;-75
2023/10/21 05:36:20;;;;;;;25.08;10.35;;;10.10;99.90;;;;;;5044085;28;20044;-77
2023/10/21 05:38:46;;;;;;;22.08;9.48;;;10.20;99.90;;;;;;5042790;28;20380;-77
2023/10/21 05:41:12;;;;;;;23.15;9.73;;;10.20;99.90;;;;;;5035533;28;20048;-77
2023/10/21 05:43:37;;;;;;;25.85;10.15;;;10.20;99.90;;;;;;5045332;28;20037;-77
2023/10/21 05:46:03;;;;;;;19.75;9.30;;;10.20;99.90;;;;;;5031044;28;20063;-76
2023/10/21 05:48:29;;;;;;;23.88;9.90;;;10.20;99.90;;;;;;5057420;28;20054;-77
2023/10/21 05:51:01;;;;;;;17.88;8.95;;;10.30;99.90;;;;;;5052945;28;20486;-77
2023/10/21 05:53:27;;;;;;;26.73;10.02;;;10.30;99.90;;;;;;5028199;28;20049;-77
2023/10/21 05:55:57;;;;;;;20.13;9.23;;;10.30;99.90;;;;;;5044448;28;20053;-77
2023/10/21 05:58:23;;;;;;;22.85;10.07;;;10.30;99.90;;;;;;5021690;28;20438;-77
2023/10/21 06:00:49;;;;;;;18.63;8.88;;;10.40;99.90;;;;;;5017912;28;20510;-77
2023/10/21 06:03:15;;;;;;;17.65;9.32;;;10.30;99.90;;;;;;5043312;28;20036;-77
2023/10/21 06:05:44;;;;;;;18.27;8.88;;;10.40;99.90;;;;;;5040084;28;20044;-77
2023/10/21 06:08:10;;;;;;;22.10;9.23;;;10.40;99.90;;;;;;5023704;28;20056;-77
2023/10/21 06:10:36;;;;;;;22.98;9.73;;;10.40;99.90;;;;;;5042754;28;20066;-77
2023/10/21 06:13:02;;;;;;;18.92;9.32;;;10.50;99.90;;;;;;5028350;28;20041;-76
2023/10/21 06:15:27;;;;;;;19.23;9.23;;;10.50;99.90;;;;;;5030447;28;20048;-76
2023/10/21 06:17:53;;;;;;;17.08;9.05;;;10.50;99.90;;;;;;5023759;28;20079;-75
2023/10/21 06:20:19;;;;;;;23.42;10.27;;;10.50;99.90;;;;;;5029261;28;20717;-77
2023/10/21 06:22:45;;;;;;;24.73;9.63;;;10.50;99.90;;;;;;5017012;28;20517;-77
2023/10/21 06:25:10;;;;;;;20.38;9.38;;;10.50;99.90;;;;;;5043031;28;20071;-77
2023/10/21 06:27:37;;;;;;;20.92;9.57;;;10.60;99.90;;;;;;5031982;28;20033;-76
2023/10/21 06:30:03;;;;;;;20.40;8.77;;;10.60;99.90;;;;;;5039417;28;20090;-77
2023/10/21 06:32:30;;;;;;;18.75;9.27;;;10.60;99.90;;;;;;5035083;28;20036;-77
2023/10/21 06:34:56;;;;;;;20.25;9.55;;;10.70;99.90;;;;;;5044572;28;20041;-77
2023/10/21 06:37:22;;;;;;;21.33;9.50;;;10.60;99.90;;;;;;5032702;28;20435;-77
2023/10/21 06:39:48;;;;;;;18.60;9.00;;;10.60;99.90;;;;;;5032209;28;20037;-77
2023/10/21 06:42:14;;;;;;;21.60;9.63;;;10.70;99.90;;;;;;5045932;28;20037;-76
2023/10/21 06:44:39;;;;;;;21.75;10.05;;;10.70;99.90;;;;;;5041447;28;20037;-77
2023/10/21 06:47:05;;;;;;;21.58;9.85;;;10.70;99.90;;;;;;5021234;28;20102;-77
2023/10/21 06:49:31;;;;;;;20.48;8.70;;;10.80;99.90;;;;;;5037153;28;20060;-78
2023/10/21 06:51:57;;;;;;;19.48;9.32;;;10.80;99.90;;;;;;5058125;28;20049;-77
2023/10/21 06:54:23;;;;;;;21.15;9.50;;;10.80;99.90;;;;;;5025712;28;20033;-77
2023/10/21 06:56:49;;;;;;;21.65;8.93;;;10.80;99.90;;;;;;5015770;28;20049;-77
2023/10/21 06:59:15;;;;;;;16.83;8.90;;;10.90;99.90;;;;;;5022257;28;20044;-77
2023/10/21 07:01:41;;;;;;;19.45;9.82;;;10.90;99.90;;;;;;5042053;28;20052;-77
2023/10/21 07:04:10;;;;;;;18.38;9.88;;;11.00;99.90;;;;;;5025535;28;20116;-78
2023/10/21 07:06:36;;;;;;;18.15;8.85;;;11.00;99.90;;;;;;5054038;28;20075;-78
2023/10/21 07:09:02;;;;;;;20.25;8.50;;;11.00;99.90;;;;;;5027678;28;20762;-77
2023/10/21 07:11:28;;;;;;;17.80;8.95;;;11.10;99.90;;;;;;5047757;28;20041;-77
2023/10/21 07:13:53;;;;;;;20.30;9.57;;;11.10;99.90;;;;;;5023526;28;20047;-76
2023/10/21 07:16:19;;;;;;;21.88;12.75;;;11.20;99.90;;;;;;5026562;28;20116;-76
2023/10/21 07:18:45;;;;;;;24.27;12.10;;;11.20;99.90;;;;;;5027736;28;20041;-77
2023/10/21 07:21:11;;;;;;;28.55;12.05;;;11.20;99.90;;;;;;5028836;28;20075;-77
2023/10/21 07:23:36;;;;;;;18.77;9.93;;;11.30;99.90;;;;;;5028073;28;20030;-76
2023/10/21 07:26:02;;;;;;;17.27;8.38;;;11.30;99.90;;;;;;5027903;28;20167;-76
2023/10/21 07:28:28;;;;;;;17.98;9.20;;;11.40;99.90;;;;;;5020754;28;20049;-77
2023/10/21 07:30:54;;;;;;;16.98;7.95;;;11.40;99.90;;;;;;5011917;28;20418;-77
2023/10/21 07:33:20;;;;;;;22.27;9.68;;;11.50;99.90;;;;;;5022529;28;20057;-77
2023/10/21 07:35:53;;;;;;;38.58;17.65;;;11.50;99.90;;;;;;5038435;28;20542;-77
2023/10/21 07:38:19;;;;;;;24.67;15.32;;;11.50;99.90;;;;;;5035169;28;20037;-76
2023/10/21 07:40:45;;;;;;;42.00;23.90;;;11.60;99.90;;;;;;5042277;28;20045;-77
2023/10/21 07:43:11;;;;;;;45.53;25.92;;;11.60;99.90;;;;;;5031222;28;20037;-80
2023/10/21 07:45:40;;;;;;;29.85;17.23;;;11.60;99.90;;;;;;5025103;28;20065;-77
2023/10/21 07:48:06;;;;;;;22.77;14.02;;;11.80;99.90;;;;;;5020931;28;20051;-76
2023/10/21 07:50:32;;;;;;;24.63;14.60;;;11.80;99.90;;;;;;5040381;28;20041;-77
2023/10/21 07:52:58;;;;;;;24.25;12.35;;;11.90;99.90;;;;;;5042505;28;20788;-75
2023/10/21 07:55:24;;;;;;;18.85;11.35;;;11.90;99.90;;;;;;5026517;28;20418;-76
2023/10/21 07:57:49;;;;;;;21.48;10.82;;;12.00;99.90;;;;;;5045628;28;20048;-75
2023/10/21 08:00:15;;;;;;;20.20;9.80;;;12.10;99.90;;;;;;5039365;28;20462;-75
2023/10/21 08:02:42;;;;;;;19.48;10.55;;;12.20;99.90;;;;;;5046461;28;20465;-75
2023/10/21 08:05:08;;;;;;;18.63;9.75;;;12.20;99.90;;;;;;5023636;28;20115;-75
2023/10/21 08:07:35;;;;;;;19.27;11.80;;;12.30;99.90;;;;;;5025087;28;20059;-75
2023/10/21 08:10:04;;;;;;;19.85;9.45;;;12.30;99.90;;;;;;5023170;28;20150;-75
2023/10/21 08:12:32;;;;;;;19.77;9.50;;;12.40;99.90;;;;;;5039884;28;20508;-75
2023/10/21 08:14:58;;;;;;;13.07;8.40;;;12.50;99.90;;;;;;5031705;28;20418;-75
2023/10/21 08:17:24;;;;;;;17.90;8.63;;;12.50;99.90;;;;;;5019605;28;20036;-76
2023/10/21 08:19:50;;;;;;;15.60;8.48;;;12.70;99.90;;;;;;5025975;28;20045;-75
2023/10/21 08:22:15;;;;;;;18.55;8.57;;;12.80;99.90;;;;;;5025548;28;20048;-75
2023/10/21 08:24:41;;;;;;;18.45;8.45;;;12.90;99.90;;;;;;5038066;28;20045;-75
2023/10/21 08:27:07;;;;;;;16.15;7.65;;;13.00;99.90;;;;;;5020323;28;20044;-76
2023/10/21 08:29:32;;;;;;;14.32;7.20;;;13.10;99.90;;;;;;5035877;28;20037;-76
2023/10/21 08:31:58;;;;;;;15.02;8.40;;;13.10;99.90;;;;;;5044175;28;20037;-76
2023/10/21 08:34:24;;;;;;;15.38;8.20;;;13.20;99.90;;;;;;5027869;28;20450;-75
2023/10/21 08:36:49;;;;;;;19.15;7.93;;;13.20;99.90;;;;;;5034288;28;20041;-76
2023/10/21 08:39:15;;;;;;;13.80;8.00;;;13.20;99.90;;;;;;5022597;28;20041;-76
2023/10/21 08:41:41;;;;;;;15.55;7.35;;;13.20;99.90;;;;;;5049106;28;20529;-76
2023/10/21 08:44:08;;;;;;;17.73;7.55;;;13.00;99.90;;;;;;5018219;28;20044;-76
2023/10/21 08:46:34;;;;;;;14.02;6.97;;;13.00;99.90;;;;;;5018138;28;20124;-76
2023/10/21 08:49:05;;;;;;;13.07;7.40;;;12.80;99.90;;;;;;5023356;28;20045;-74
2023/10/21 08:51:32;;;;;;;13.43;6.95;;;12.90;99.90;;;;;;5034366;28;20737;-75
2023/10/21 08:54:03;;;;;;;15.63;6.85;;;12.90;99.90;;;;;;5047424;28;20040;-75
2023/10/21 08:56:33;;;;;;;14.45;6.88;;;12.90;99.90;;;;;;5023274;28;20049;-75
2023/10/21 08:58:59;;;;;;;16.17;6.65;;;13.00;99.90;;;;;;5033294;28;20086;-75
2023/10/21 09:01:24;;;;;;;12.88;6.78;;;13.00;99.90;;;;;;5028469;28;20045;-75
2023/10/21 09:03:51;;;;;;;9.82;6.07;;;13.10;99.90;;;;;;5048340;28;20180;-75
2023/10/21 09:06:17;;;;;;;11.77;6.45;;;13.10;99.90;;;;;;5025401;28;20553;-75
2023/10/21 09:08:47;;;;;;;12.25;6.20;;;13.20;99.90;;;;;;5036955;28;20041;-75
2023/10/21 09:11:18;;;;;;;13.52;6.25;;;13.40;99.90;;;;;;5029387;28;20044;-75
2023/10/21 09:13:44;;;;;;;15.35;6.38;;;13.60;99.90;;;;;;5044127;28;20223;-76
2023/10/21 09:16:26;;;;;;;13.98;6.63;;;13.60;99.90;;;;;;5039553;28;20049;-75
2023/10/21 09:19:03;;;;;;;12.02;6.10;;;13.80;99.90;;;;;;5022775;28;20038;-75
2023/10/21 09:21:50;;;;;;;11.45;5.80;;;14.10;99.90;;;;;;5036328;28;20037;-75
2023/10/21 09:24:22;;;;;;;;;;;14.30;99.90;;;;;;5036665;28;20083;-76
2023/10/21 09:26:49;;;;;;;15.48;6.28;;;14.40;99.90;;;;;;5029891;28;19916;-75
2023/10/21 09:29:18;;;;;;;10.88;5.53;;;14.50;99.90;;;;;;5043426;28;20700;-76
2023/10/21 09:31:54;;;;;;;14.93;5.57;;;14.50;99.90;;;;;;5052680;28;20044;-75
2023/10/21 09:34:28;;;;;;;9.93;4.78;;;14.50;99.90;;;;;;5045135;28;20801;-76
2023/10/21 09:36:56;;;;;;;10.20;5.05;;;14.50;99.90;;;;;;5042028;28;20594;-75
2023/10/21 09:39:23;;;;;;;14.27;5.13;;;14.50;99.90;;;;;;5023204;28;20040;-75
2023/10/21 09:41:49;;;;;;;10.45;4.45;;;14.60;99.90;;;;;;5028084;28;20510;-75
2023/10/21 09:44:16;;;;;;;6.43;4.00;;;14.60;99.90;;;;;;5027795;28;20041;-76
2023/10/21 09:46:46;;;;;;;7.80;4.80;;;14.60;99.90;;;;;;5032550;28;20051;-75
2023/10/21 09:49:13;;;;;;;9.80;4.40;;;14.60;99.90;;;;;;5031471;28;20120;-75
2023/10/21 09:52:04;;;;;;;7.68;3.80;;;14.50;99.90;;;;;;5051887;28;20158;-76
2023/10/21 09:54:41;;;;;;;6.95;3.45;;;14.40;99.90;;;;;;5027054;28;20084;-75
2023/10/21 09:57:09;;;;;;;7.13;3.40;;;14.40;99.90;;;;;;5010541;28;20049;-75
2023/10/21 09:59:35;;;;;;;5.43;3.25;;;14.30;99.90;;;;;;5022313;28;20037;-75
2023/10/21 10:02:04;;;;;;;9.10;3.67;;;14.30;99.90;;;;;;5043990;28;20550;-75
2023/10/21 10:04:33;;;;;;;5.57;3.30;;;14.30;99.90;;;;;;5038749;28;20029;-75
2023/10/21 10:06:59;;;;;;;8.38;3.40;;;14.20;99.90;;;;;;5010426;28;20411;-75
2023/10/21 10:09:31;;;;;;;6.22;3.30;;;14.20;99.90;;;;;;5011530;28;20045;-75
2023/10/21 10:11:59;;;;;;;5.20;2.85;;;14.20;99.90;;;;;;5028506;28;20128;-76
2023/10/21 10:14:28;;;;;;;5.43;2.80;;;14.20;99.90;;;;;;5033772;28;20044;-76
2023/10/21 10:16:54;;;;;;;5.22;2.58;;;14.30;99.90;;;;;;5022714;28;20098;-76
2023/10/21 10:19:42;;;;;;;4.63;2.45;;;14.40;99.90;;;;;;5043810;28;20037;-76
2023/10/21 10:22:21;;;;;;;5.35;2.70;;;14.50;99.90;;;;;;5023249;28;20048;-76
2023/10/21 10:25:10;;;;;;;6.32;2.70;;;14.40;99.90;;;;;;5035886;28;20049;-76
2023/10/21 10:27:40;;;;;;;6.72;2.05;;;14.40;99.90;;;;;;5031440;28;20111;-76
2023/10/21 10:30:19;;;;;;;10.77;5.43;;;14.30;99.90;;;;;;5034925;28;20095;-75
2023/10/21 10:32:47;;;;;;;5.65;2.63;;;14.30;99.90;;;;;;5018640;28;20125;-76
2023/10/21 10:35:42;;;;;;;5.95;2.80;;;14.30;99.90;;;;;;5044501;28;20091;-75
2023/10/21 10:38:27;;;;;;;3.10;1.70;;;14.30;99.90;;;;;;5042447;28;20059;-76
2023/10/21 10:41:18;;;;;;;2.38;1.60;;;14.30;99.90;;;;;;5031279;28;20124;-75
2023/10/21 10:43:46;;;;;;;2.92;1.30;;;14.30;99.90;;;;;;5041518;28;20055;-76
2023/10/21 10:46:23;;;;;;;3.47;1.40;;;14.30;99.90;;;;;;5040617;28;20119;-76
2023/10/21 10:48:50;;;;;;;2.53;1.20;;;14.40;99.90;;;;;;5017004;28;20091;-75
2023/10/21 10:51:16;;;;;;;1.95;1.15;;;14.70;99.90;;;;;;5028951;28;20575;-77
2023/10/21 10:53:56;;;;;;;2.63;1.00;;;14.70;99.90;;;;;;5047780;28;20083;-76
2023/10/21 10:56:25;;;;;;;2.03;0.90;;;14.60;99.90;;;;;;5022444;28;20061;-76
2023/10/21 10:58:52;;;;;;;2.45;1.00;;;14.40;99.90;;;;;;5026641;28;20396;-76
2023/10/21 11:01:25;;;;;;;1.70;1.00;;;14.30;99.90;;;;;;5036554;28;20029;-76
2023/10/21 11:03:58;;;;;;;39.42;15.50;;;14.50;99.90;;;;;;5031466;28;20448;-76
2023/10/21 11:06:31;;;;;;;2.58;1.40;;;14.40;99.90;;;;;;5026722;28;20220;-76
2023/10/21 11:09:00;;;;;;;3.20;1.40;;;14.40;99.90;;;;;;5028406;28;20036;-76
2023/10/21 11:11:28;;;;;;;2.83;1.10;;;14.50;99.90;;;;;;5043013;28;20045;-76
2023/10/21 11:13:55;;;;;;;2.58;1.05;;;14.50;99.90;;;;;;5032700;28;20128;-76
2023/10/21 11:16:21;;;;;;;2.90;1.00;;;14.40;99.90;;;;;;5037807;28;20413;-76
2023/10/21 11:18:46;;;;;;;3.75;1.25;;;14.40;99.90;;;;;;5029385;28;20479;-76
2023/10/21 11:21:12;;;;;;;4.75;1.25;;;14.60;99.90;;;;;;5042648;28;20033;-77
2023/10/21 11:23:37;;;;;;;0.70;0.70;;;14.60;99.90;;;;;;5027060;28;20098;-76
2023/10/21 11:26:10;;;;;;;1.17;0.90;;;14.40;99.90;;;;;;5035672;28;20044;-77
2023/10/21 11:28:37;;;;;;;1.25;0.90;;;14.20;99.90;;;;;;5039792;28;20059;-77
2023/10/21 11:31:04;;;;;;;2.08;0.82;;;14.10;99.90;;;;;;5029524;28;20041;-75
2023/10/21 11:33:29;;;;;;;2.38;0.90;;;14.10;99.90;;;;;;5035403;28;20033;-76
2023/10/21 11:35:57;;;;;;;3.83;0.77;;;14.00;99.90;;;;;;5034548;28;20049;-76
2023/10/21 11:38:23;;;;;;;2.00;0.68;;;14.20;99.90;;;;;;5031079;28;20059;-76
2023/10/21 11:40:49;;;;;;;1.50;0.80;;;14.30;99.90;;;;;;5038220;28;20036;-75
2023/10/21 11:43:17;;;;;;;1.55;0.70;;;14.20;99.90;;;;;;5031814;28;20507;-76
2023/10/21 11:45:43;;;;;;;0.90;0.50;;;14.20;99.90;;;;;;5045174;28;20037;-76
2023/10/21 11:48:09;;;;;;;1.50;0.60;;;14.10;99.90;;;;;;5036349;28;20522;-77
2023/10/21 11:50:38;;;;;;;1.77;0.70;;;14.00;99.90;;;;;;5030120;28;20120;-76
2023/10/21 11:53:06;;;;;;;1.00;0.70;;;13.80;99.90;;;;;;5056342;28;20056;-76
2023/10/21 12:30:26;;;;;;;0.88;0.52;;;14.00;99.90;;;;;;5048043;28;20070;-76
2023/10/21 12:33:03;;;;;;;3.97;1.03;;;14.20;99.90;;;;;;5047777;28;20055;-76
2023/10/21 12:35:52;;;;;;;1.35;0.70;;;14.60;99.90;;;;;;5026385;28;20056;-77
2023/10/21 12:38:38;;;;;;;2.75;0.90;;;14.70;99.90;;;;;;5044500;28;20517;-76
2023/10/21 12:41:20;;;;;;;1.15;0.57;;;14.60;99.90;;;;;;5019522;28;20624;-76
2023/10/21 12:43:48;;;;;;;1.67;0.73;;;14.60;99.90;;;;;;5027533;28;20126;-76
2023/10/21 12:46:17;;;;;;;2.05;0.60;;;14.70;99.90;;;;;;5035423;28;20052;-76
2023/10/21 12:48:51;;;;;;;1.45;0.77;;;14.60;99.90;;;;;;5057461;28;20040;-77
2023/10/21 12:51:21;;;;;;;1.60;0.50;;;14.50;99.90;;;;;;5029646;28;20033;-76
2023/10/21 12:53:46;;;;;;;0.80;0.50;;;14.50;99.90;;;;;;5029879;28;20041;-76
2023/10/21 12:56:13;;;;;;;2.88;1.35;;;14.40;99.90;;;;;;5024400;28;20053;-75
2023/10/21 12:58:40;;;;;;;3.97;1.35;;;14.30;99.90;;;;;;5038233;28;20045;-76
2023/10/21 13:01:09;;;;;;;1.67;0.90;;;14.40;99.90;;;;;;5029338;28;20086;-76
2023/10/21 13:03:36;;;;;;;3.10;1.75;;;14.30;99.90;;;;;;5032073;28;20375;-76
2023/10/21 13:06:05;;;;;;;2.75;1.58;;;14.30;99.90;;;;;;5032594;28;20373;-76
2023/10/21 13:08:31;;;;;;;3.67;1.30;;;14.40;99.90;;;;;;5025455;28;20040;-76
2023/10/21 13:10:56;;;;;;;2.90;1.13;;;14.40;99.90;;;;;;5050948;28;20045;-76
2023/10/21 13:13:23;;;;;;;4.82;1.90;;;14.40;99.90;;;;;;5027597;28;20087;-76
2023/10/21 13:15:49;;;;;;;5.50;2.72;;;14.30;99.90;;;;;;5023755;28;20124;-76